Time;durP1;ratioP1;P1;durP2;ratioP2;P2;SDS_P1;SDS_P2;PMS_P1;PMS_P2;Temp;Humidity;BMP_temperature;BMP_pressure;BME280_temperature;BME280_humidity;BME280_pressure;Samples;Min_cycle;Max_cycle;Signal;HPM_P1;HPM_P2
2023/04/24 00:00:58;;;;;;;3.38;1.75;;;13.40;99.90;;;;;;6187525;23;20092;-91
2023/04/24 00:03:24;;;;;;;7.10;1.83;;;13.40;99.90;;;;;;6187848;23;20117;-92
2023/04/24 00:05:50;;;;;;;7.43;1.65;;;13.40;99.90;;;;;;6185574;23;20052;-92
2023/04/24 00:08:17;;;;;;;3.15;1.25;;;13.40;99.90;;;;;;6185873;23;20009;-92
2023/04/24 00:10:42;;;;;;;4.10;1.70;;;13.30;99.90;;;;;;6187274;23;20021;-92
2023/04/24 00:13:08;;;;;;;4.55;1.42;;;13.30;99.90;;;;;;6187650;23;20020;-92
2023/04/24 00:15:34;;;;;;;3.60;1.50;;;13.30;99.90;;;;;;6185625;23;20028;-92
2023/04/24 00:18:01;;;;;;;2.80;1.38;;;13.30;99.90;;;;;;6186018;23;20017;-93
2023/04/24 00:20:29;;;;;;;2.35;1.17;;;13.20;99.90;;;;;;6185763;23;20453;-92
2023/04/24 00:22:55;;;;;;;3.60;1.40;;;13.20;99.90;;;;;;6185345;23;20017;-91
2023/04/24 00:25:20;;;;;;;2.30;1.20;;;13.20;99.90;;;;;;6186646;23;20023;-92
2023/04/24 00:27:46;;;;;;;5.75;1.40;;;13.20;99.90;;;;;;6187423;23;20017;-93
2023/04/24 00:30:12;;;;;;;2.28;1.40;;;13.10;99.90;;;;;;6185656;23;20063;-92
2023/04/24 00:32:37;;;;;;;2.95;1.30;;;13.10;99.90;;;;;;6187079;23;20055;-93
2023/04/24 00:35:04;;;;;;;2.05;1.20;;;13.10;99.90;;;;;;6187471;23;20024;-92
2023/04/24 00:37:29;;;;;;;2.83;1.20;;;13.10;99.90;;;;;;6185481;23;20021;-92
2023/04/24 00:39:55;;;;;;;2.70;1.20;;;13.10;99.90;;;;;;6187289;23;20055;-92
2023/04/24 00:42:20;;;;;;;1.92;1.10;;;13.10;99.90;;;;;;6187286;23;20438;-92
2023/04/24 00:44:46;;;;;;;2.40;0.90;;;13.10;99.90;;;;;;6184756;23;20338;-92
2023/04/24 00:47:13;;;;;;;1.73;1.00;;;13.10;99.90;;;;;;6186975;23;20017;-92
2023/04/24 00:49:38;;;;;;;1.80;0.63;;;13.00;99.90;;;;;;6184938;23;20024;-92
2023/04/24 00:52:07;;;;;;;2.60;0.82;;;13.00;99.90;;;;;;6185186;23;20018;-92
2023/04/24 00:54:33;;;;;;;2.20;0.90;;;13.00;99.90;;;;;;6185074;23;20012;-92
2023/04/24 00:56:58;;;;;;;1.60;0.60;;;12.90;99.90;;;;;;6185093;23;20028;-91
2023/04/24 00:59:24;;;;;;;1.20;0.65;;;12.90;99.90;;;;;;6184593;23;20013;-92
2023/04/24 01:01:51;;;;;;;1.88;0.63;;;12.90;99.90;;;;;;6185525;23;20457;-92
2023/04/24 01:04:17;;;;;;;2.15;0.90;;;12.80;99.90;;;;;;6185698;23;20016;-92
2023/04/24 01:06:45;;;;;;;2.58;0.70;;;12.70;99.90;;;;;;6186839;23;20020;-91
2023/04/24 01:09:12;;;;;;;1.75;0.65;;;12.70;99.90;;;;;;6187026;23;20351;-91
2023/04/24 01:11:37;;;;;;;1.67;0.60;;;12.60;99.90;;;;;;6184885;23;20019;-92
2023/04/24 01:14:03;;;;;;;1.85;0.68;;;12.60;99.90;;;;;;6184173;23;20040;-90
2023/04/24 01:16:29;;;;;;;2.15;0.90;;;12.50;99.90;;;;;;6184900;23;20013;-91
2023/04/24 01:18:55;;;;;;;1.73;0.80;;;12.40;99.90;;;;;;6184946;23;20017;-91
2023/04/24 01:21:21;;;;;;;1.83;0.90;;;12.40;99.90;;;;;;6186477;23;20024;-92
2023/04/24 01:23:47;;;;;;;2.58;0.98;;;12.30;99.90;;;;;;6186432;23;20024;-91
2023/04/24 01:26:14;;;;;;;1.75;0.80;;;12.30;99.90;;;;;;6185581;23;20013;-91
2023/04/24 01:28:40;;;;;;;1.45;0.93;;;12.30;99.90;;;;;;6184989;23;20013;-91
2023/04/24 01:31:06;;;;;;;1.40;0.90;;;12.30;99.90;;;;;;6187443;23;20052;-91
2023/04/24 01:33:33;;;;;;;1.20;0.80;;;12.30;99.90;;;;;;6184871;23;20345;-90
2023/04/24 01:35:59;;;;;;;2.90;1.02;;;12.20;99.90;;;;;;6185032;23;20148;-90
2023/04/24 01:38:25;;;;;;;2.50;1.40;;;12.20;99.90;;;;;;6184815;23;20021;-91
2023/04/24 01:40:51;;;;;;;1.83;1.23;;;12.20;99.90;;;;;;6184221;23;20020;-90
2023/04/24 01:43:17;;;;;;;2.35;1.42;;;12.20;99.90;;;;;;6188243;23;20024;-91
2023/04/24 01:45:43;;;;;;;2.33;1.20;;;12.10;99.90;;;;;;6216365;23;20111;-90
2023/04/24 01:48:09;;;;;;;3.83;1.50;;;12.10;99.90;;;;;;6190026;23;20445;-93
2023/04/24 01:50:35;;;;;;;2.60;1.20;;;12.10;99.90;;;;;;6217050;23;20020;-93
2023/04/24 01:53:00;;;;;;;3.95;1.33;;;12.10;99.90;;;;;;6189074;23;20445;-92
2023/04/24 01:55:26;;;;;;;2.97;1.55;;;12.10;99.90;;;;;;6216284;23;20112;-92
2023/04/24 01:57:55;;;;;;;3.80;1.50;;;12.10;99.90;;;;;;6189509;23;20448;-92
2023/04/24 02:00:20;;;;;;;4.57;1.45;;;12.00;99.90;;;;;;6190169;23;20511;-93
2023/04/24 02:02:46;;;;;;;2.97;2.00;;;12.00;99.90;;;;;;6215876;23;20020;-92
2023/04/24 02:05:11;;;;;;;3.30;1.90;;;12.00;99.90;;;;;;6189568;23;20048;-92
2023/04/24 02:07:37;;;;;;;3.28;1.13;;;12.00;99.90;;;;;;6189784;23;20020;-92
2023/04/24 02:10:04;;;;;;;4.68;1.98;;;12.00;99.90;;;;;;6190592;23;20023;-91
2023/04/24 02:12:29;;;;;;;2.80;1.80;;;12.00;99.90;;;;;;6216307;23;20404;-93
2023/04/24 02:14:55;;;;;;;3.83;2.63;;;12.00;99.90;;;;;;6216834;23;20063;-92
2023/04/24 02:17:21;;;;;;;5.03;2.85;;;11.90;99.90;;;;;;6189483;23;20015;-92
2023/04/24 02:19:47;;;;;;;5.07;2.33;;;11.90;99.90;;;;;;6216340;23;20064;-92
2023/04/24 02:22:12;;;;;;;6.95;2.97;;;11.90;99.90;;;;;;6189921;23;20095;-93
2023/04/24 02:24:38;;;;;;;4.20;2.78;;;11.90;99.90;;;;;;6188862;23;20017;-91
2023/04/24 02:27:04;;;;;;;5.28;2.50;;;11.90;99.90;;;;;;6189507;23;20095;-91
2023/04/24 02:29:30;;;;;;;5.40;2.88;;;11.90;99.90;;;;;;6215759;23;20432;-93
2023/04/24 02:31:56;;;;;;;3.97;2.60;;;11.90;99.90;;;;;;6215524;23;20025;-92
2023/04/24 02:34:22;;;;;;;4.90;2.53;;;11.80;99.90;;;;;;6216628;23;20043;-92
2023/04/24 02:36:48;;;;;;;5.10;2.47;;;11.80;99.90;;;;;;6189091;23;20083;-92
2023/04/24 02:39:16;;;;;;;4.20;2.45;;;11.80;99.90;;;;;;6188396;23;20013;-91
2023/04/24 02:41:42;;;;;;;4.18;2.20;;;11.80;99.90;;;;;;6188846;23;20441;-91
2023/04/24 02:44:08;;;;;;;3.97;2.42;;;11.70;99.90;;;;;;6188171;23;20100;-89
2023/04/24 02:46:33;;;;;;;4.82;2.22;;;11.70;99.90;;;;;;6188334;23;20079;-92
2023/04/24 02:48:59;;;;;;;3.92;2.40;;;11.70;99.90;;;;;;6188840;23;20009;-93
2023/04/24 02:51:25;;;;;;;3.97;2.45;;;11.70;99.90;;;;;;6216793;23;20017;-92
2023/04/24 02:53:50;;;;;;;5.07;2.53;;;11.70;99.90;;;;;;6189533;23;20013;-90
2023/04/24 02:56:16;;;;;;;4.35;2.50;;;11.70;99.90;;;;;;6214719;23;20044;-91
2023/04/24 02:58:42;;;;;;;4.82;2.67;;;11.60;99.90;;;;;;6188405;23;20445;-92
2023/04/24 03:01:09;;;;;;;4.20;2.50;;;11.60;99.90;;;;;;6189356;23;20032;-93
2023/04/24 03:03:35;;;;;;;4.75;2.30;;;11.60;99.90;;;;;;6215625;23;20051;-92
2023/04/24 03:06:01;;;;;;;5.28;2.35;;;11.60;99.90;;;;;;6215322;23;20012;-92
2023/04/24 03:08:27;;;;;;;4.50;2.17;;;11.60;99.90;;;;;;6215027;23;20017;-93
2023/04/24 03:10:52;;;;;;;6.60;2.40;;;11.60;99.90;;;;;;6188712;23;20017;-91
2023/04/24 03:13:18;;;;;;;4.80;2.38;;;11.50;99.90;;;;;;6188923;23;20095;-93
2023/04/24 03:15:44;;;;;;;4.03;2.45;;;11.50;99.90;;;;;;6216573;23;20314;-92
2023/04/24 03:18:10;;;;;;;6.65;2.60;;;11.40;99.90;;;;;;6189987;23;20019;-91
2023/04/24 03:20:37;;;;;;;6.20;2.67;;;11.40;99.90;;;;;;6190009;23;20016;-92
2023/04/24 03:23:03;;;;;;;3.35;2.08;;;11.40;99.90;;;;;;6190474;23;20012;-92
2023/04/24 03:25:28;;;;;;;3.67;2.20;;;11.40;99.90;;;;;;6190681;23;20400;-93
2023/04/24 03:27:54;;;;;;;3.22;2.15;;;11.40;99.90;;;;;;6190079;23;20016;-93
2023/04/24 03:30:20;;;;;;;4.13;2.20;;;11.40;99.90;;;;;;6189997;23;20013;-93
2023/04/24 03:32:46;;;;;;;3.25;2.20;;;11.30;99.90;;;;;;6189959;23;20013;-92
2023/04/24 03:35:11;;;;;;;5.55;2.10;;;11.30;99.90;;;;;;6216752;23;20433;-92
2023/04/24 03:37:37;;;;;;;3.47;1.80;;;11.30;99.90;;;;;;6216743;23;20063;-92
2023/04/24 03:40:03;;;;;;;3.42;2.30;;;11.20;99.90;;;;;;6192127;23;20021;-94
2023/04/24 03:42:28;;;;;;;3.63;2.13;;;11.20;99.90;;;;;;6191371;23;20047;-93
2023/04/24 03:44:54;;;;;;;4.40;2.10;;;11.20;99.90;;;;;;6217568;23;20027;-93
2023/04/24 03:47:20;;;;;;;3.55;2.00;;;11.20;99.90;;;;;;6191298;23;20012;-92
2023/04/24 03:49:45;;;;;;;3.53;1.95;;;11.20;99.90;;;;;;6191009;23;20038;-93
2023/04/24 03:52:11;;;;;;;4.55;1.70;;;11.20;99.90;;;;;;6218723;23;20016;-92
2023/04/24 03:54:36;;;;;;;3.55;1.95;;;11.10;99.90;;;;;;6191142;23;20071;-93
2023/04/24 03:57:03;;;;;;;3.67;1.90;;;11.10;99.90;;;;;;6191528;23;20108;-92
2023/04/24 03:59:28;;;;;;;4.38;2.05;;;11.10;99.90;;;;;;6191573;23;20074;-93
2023/04/24 04:01:54;;;;;;;3.83;1.98;;;11.00;99.90;;;;;;6191375;23;20445;-92
2023/04/24 04:04:20;;;;;;;5.13;2.00;;;11.10;99.90;;;;;;6191293;23;20013;-92
2023/04/24 04:06:46;;;;;;;3.38;2.15;;;11.00;99.90;;;;;;6191215;23;20020;-93
2023/04/24 04:09:12;;;;;;;3.63;1.95;;;11.00;99.90;;;;;;6191085;23;20475;-92
2023/04/24 04:11:37;;;;;;;4.15;2.00;;;11.00;99.90;;;;;;6217551;23;20017;-92
2023/04/24 04:14:03;;;;;;;3.28;2.20;;;11.00;99.90;;;;;;6191320;23;20044;-92
2023/04/24 04:16:29;;;;;;;4.43;2.17;;;11.00;99.90;;;;;;6190479;23;20020;-91
2023/04/24 04:18:55;;;;;;;5.32;2.05;;;11.00;99.90;;;;;;6217223;23;20013;-91
2023/04/24 04:21:20;;;;;;;3.22;1.88;;;11.00;99.90;;;;;;6191079;23;20069;-93
2023/04/24 04:23:46;;;;;;;3.72;2.00;;;11.00;99.90;;;;;;6190463;23;20045;-93
2023/04/24 04:26:12;;;;;;;2.53;1.58;;;10.90;99.90;;;;;;6191350;23;20020;-91
2023/04/24 04:28:39;;;;;;;4.47;1.73;;;11.00;99.90;;;;;;6190843;23;20013;-92
2023/04/24 04:31:05;;;;;;;3.20;1.60;;;10.90;99.90;;;;;;6190693;23;20016;-93
2023/04/24 04:33:30;;;;;;;2.80;1.40;;;11.00;99.90;;;;;;6217607;23;20015;-93
2023/04/24 04:35:56;;;;;;;3.63;1.70;;;11.00;99.90;;;;;;6191112;23;20048;-91
2023/04/24 04:38:22;;;;;;;2.03;1.33;;;10.90;99.90;;;;;;6218057;23;20027;-94
2023/04/24 04:40:48;;;;;;;2.15;1.35;;;11.00;99.90;;;;;;6191782;23;20091;-95
2023/04/24 04:43:14;;;;;;;1.88;1.17;;;10.90;99.90;;;;;;6219101;23;20070;-96
2023/04/24 04:45:42;;;;;;;3.80;1.10;;;10.90;99.90;;;;;;6191915;23;20017;-95
2023/04/24 04:48:08;;;;;;;1.95;0.95;;;10.90;99.90;;;;;;6218106;23;20016;-94
2023/04/24 04:50:35;;;;;;;2.08;0.88;;;10.90;99.90;;;;;;6217441;23;20012;-92
2023/04/24 04:53:01;;;;;;;2.90;1.20;;;10.80;99.90;;;;;;6218203;23;20044;-94
2023/04/24 04:55:26;;;;;;;1.90;1.00;;;10.80;99.90;;;;;;6217435;23;20012;-93
2023/04/24 04:57:52;;;;;;;2.33;0.70;;;10.80;99.90;;;;;;6189592;23;20015;-93
2023/04/24 05:00:18;;;;;;;2.20;0.90;;;10.70;99.90;;;;;;6189883;23;20466;-92
2023/04/24 05:02:44;;;;;;;1.63;0.77;;;10.70;99.90;;;;;;6189979;23;20412;-94
2023/04/24 05:05:10;;;;;;;1.23;0.70;;;10.80;99.90;;;;;;6216698;23;20044;-91
2023/04/24 05:07:36;;;;;;;2.25;1.10;;;10.70;99.90;;;;;;6189804;23;20035;-91
2023/04/24 05:10:02;;;;;;;1.63;0.77;;;10.70;99.90;;;;;;6216076;23;20052;-91
2023/04/24 05:12:27;;;;;;;1.40;0.80;;;10.70;99.90;;;;;;6215845;23;20012;-90
2023/04/24 05:14:53;;;;;;;1.65;0.73;;;10.70;99.90;;;;;;6189002;23;20437;-91
2023/04/24 05:17:19;;;;;;;1.25;0.60;;;10.70;99.90;;;;;;6189562;23;20038;-90
2023/04/24 05:19:44;;;;;;;1.00;0.60;;;10.70;99.90;;;;;;6188628;23;20020;-90
2023/04/24 05:22:11;;;;;;;1.60;0.60;;;10.70;99.90;;;;;;6216259;23;20020;-91
2023/04/24 05:24:37;;;;;;;0.88;0.70;;;10.70;99.90;;;;;;6189221;23;20348;-91
2023/04/24 05:27:06;;;;;;;1.58;0.82;;;10.70;99.90;;;;;;6215697;23;20009;-90
2023/04/24 05:29:33;;;;;;;1.52;0.80;;;10.70;99.90;;;;;;6189226;23;20095;-93
2023/04/24 05:31:59;;;;;;;1.55;0.80;;;10.70;99.90;;;;;;6188481;23;20020;-87
2023/04/24 05:34:25;;;;;;;2.30;0.95;;;10.70;99.90;;;;;;6187355;23;20016;-89
2023/04/24 05:36:51;;;;;;;3.33;0.85;;;10.70;99.90;;;;;;6215282;23;20019;-85
2023/04/24 05:39:17;;;;;;;3.33;0.98;;;10.80;99.90;;;;;;6188860;23;20051;-88
2023/04/24 05:41:43;;;;;;;2.08;0.75;;;10.80;99.90;;;;;;6214672;23;20337;-88
2023/04/24 05:44:08;;;;;;;1.77;0.82;;;10.80;99.90;;;;;;6215689;23;20381;-88
2023/04/24 05:46:34;;;;;;;2.50;0.85;;;10.90;99.90;;;;;;6215294;23;20082;-88
2023/04/24 05:49:00;;;;;;;1.80;1.02;;;10.90;99.90;;;;;;6187933;23;20020;-86
2023/04/24 05:51:25;;;;;;;1.63;0.93;;;10.90;99.90;;;;;;6188509;23;20016;-88
2023/04/24 05:53:51;;;;;;;2.13;1.20;;;10.90;99.90;;;;;;6188337;23;20400;-88
2023/04/24 05:56:18;;;;;;;2.95;1.67;;;10.90;99.90;;;;;;6214400;23;20463;-89
2023/04/24 05:58:44;;;;;;;3.22;1.10;;;11.00;99.90;;;;;;6214771;23;20381;-88
2023/04/24 06:01:09;;;;;;;2.78;1.23;;;10.90;99.90;;;;;;6209370;23;20012;-88
2023/04/24 06:03:35;;;;;;;3.28;1.90;;;11.00;99.90;;;;;;6188717;23;20016;-89
2023/04/24 06:06:00;;;;;;;2.97;1.08;;;11.00;99.90;;;;;;6187845;23;20343;-89
2023/04/24 06:08:26;;;;;;;2.67;1.35;;;11.00;99.90;;;;;;6214467;23;20021;-88
2023/04/24 06:10:52;;;;;;;2.60;1.20;;;11.00;99.90;;;;;;6187884;23;20441;-87
2023/04/24 06:13:17;;;;;;;3.47;1.08;;;11.10;99.90;;;;;;6215283;23;20024;-87
2023/04/24 06:15:43;;;;;;;1.42;0.90;;;11.10;99.90;;;;;;6213650;23;20079;-88
2023/04/24 06:18:12;;;;;;;2.38;1.00;;;11.10;99.90;;;;;;6188294;23;20052;-88
2023/04/24 06:20:38;;;;;;;1.88;0.98;;;11.10;99.90;;;;;;6212688;23;20019;-87
2023/04/24 06:23:03;;;;;;;2.90;1.30;;;11.00;99.90;;;;;;6185443;23;20056;-86
2023/04/24 06:25:29;;;;;;;2.25;1.25;;;11.00;99.90;;;;;;6185737;23;20027;-87
2023/04/24 06:27:55;;;;;;;2.67;1.20;;;11.00;99.90;;;;;;6185650;23;20023;-87
2023/04/24 06:30:21;;;;;;;3.10;1.25;;;11.00;99.90;;;;;;6185422;23;20345;-87
2023/04/24 06:32:47;;;;;;;4.50;1.25;;;11.00;99.90;;;;;;6188538;23;20091;-87
2023/04/24 06:35:12;;;;;;;2.67;1.20;;;11.00;99.90;;;;;;6188057;23;20095;-86
2023/04/24 06:37:42;;;;;;;3.75;1.60;;;11.00;99.90;;;;;;6187152;23;20017;-86
2023/04/24 06:40:09;;;;;;;3.63;1.77;;;11.00;99.90;;;;;;6187344;23;20104;-87
2023/04/24 06:42:36;;;;;;;3.95;1.90;;;11.00;99.90;;;;;;6187397;23;20047;-86
2023/04/24 06:45:02;;;;;;;5.22;1.88;;;11.00;99.90;;;;;;6212891;23;20421;-86
2023/04/24 06:47:27;;;;;;;7.85;2.13;;;10.90;99.90;;;;;;6188145;23;20044;-87
2023/04/24 06:49:53;;;;;;;4.28;2.25;;;11.00;99.90;;;;;;6187919;23;20341;-86
2023/04/24 06:52:19;;;;;;;5.00;2.33;;;11.00;99.90;;;;;;6187251;23;20352;-87
2023/04/24 06:54:45;;;;;;;3.45;1.70;;;11.00;99.90;;;;;;6215764;23;20063;-86
2023/04/24 06:57:11;;;;;;;4.68;2.10;;;11.00;99.90;;;;;;6215582;23;20020;-87
2023/04/24 06:59:37;;;;;;;3.92;1.77;;;11.00;99.90;;;;;;6213356;23;20020;-87
2023/04/24 07:02:03;;;;;;;5.15;2.75;;;11.00;99.90;;;;;;6187221;23;20413;-87
2023/04/24 07:04:29;;;;;;;4.53;1.70;;;11.00;99.90;;;;;;6185485;23;20020;-87
2023/04/24 07:06:57;;;;;;;5.47;2.47;;;11.00;99.90;;;;;;6187987;23;20027;-88
2023/04/24 07:09:25;;;;;;;4.50;1.75;;;11.00;99.90;;;;;;6189261;23;20052;-88
2023/04/24 07:11:51;;;;;;;5.65;2.65;;;11.00;99.90;;;;;;6188489;23;20020;-88
2023/04/24 07:14:17;;;;;;;5.20;1.90;;;11.00;99.90;;;;;;6189689;23;20024;-88
2023/04/24 07:16:43;;;;;;;4.65;2.15;;;11.00;99.90;;;;;;6216068;23;20012;-87
2023/04/24 07:19:09;;;;;;;4.13;1.98;;;11.00;99.90;;;;;;6189059;23;20487;-86
2023/04/24 07:21:34;;;;;;;4.43;1.75;;;11.00;99.90;;;;;;6189918;23;20012;-87
2023/04/24 07:24:00;;;;;;;4.90;1.83;;;11.00;99.90;;;;;;6190961;23;20345;-88
2023/04/24 07:26:28;;;;;;;4.32;1.92;;;10.90;99.90;;;;;;6189046;23;20027;-87
2023/04/24 07:28:54;;;;;;;3.97;1.92;;;11.00;99.90;;;;;;6216445;23;20036;-87
2023/04/24 07:31:20;;;;;;;4.18;1.80;;;11.00;99.90;;;;;;6190078;23;20020;-87
2023/04/24 07:33:46;;;;;;;3.92;1.17;;;10.90;99.90;;;;;;6215912;23;20024;-86
2023/04/24 07:36:15;;;;;;;3.05;1.45;;;10.90;99.90;;;;;;6189543;23;20017;-87
2023/04/24 07:38:45;;;;;;;6.35;1.75;;;10.90;99.90;;;;;;6189403;23;20084;-86
2023/04/24 07:41:12;;;;;;;6.18;1.60;;;10.90;99.90;;;;;;6216516;23;20092;-87
2023/04/24 07:43:38;;;;;;;1.65;1.00;;;10.90;99.90;;;;;;6184504;23;20020;-86
2023/04/24 07:46:03;;;;;;;5.53;1.83;;;10.80;99.90;;;;;;6186198;23;20104;-88
2023/04/24 07:48:29;;;;;;;4.80;1.60;;;10.80;99.90;;;;;;6184666;23;20323;-88
2023/04/24 07:50:55;;;;;;;4.68;1.40;;;10.80;99.90;;;;;;6183980;23;20021;-87
2023/04/24 07:53:20;;;;;;;6.30;1.55;;;10.80;99.90;;;;;;6184426;23;20024;-87
2023/04/24 07:55:46;;;;;;;4.90;1.48;;;10.80;99.90;;;;;;6183806;23;20099;-87
2023/04/24 07:58:12;;;;;;;4.03;1.30;;;10.80;99.90;;;;;;6184472;23;20566;-87
2023/04/24 08:00:37;;;;;;;5.40;1.35;;;10.80;99.90;;;;;;6183649;23;20013;-85
2023/04/24 08:03:03;;;;;;;3.92;1.42;;;10.80;99.90;;;;;;6183703;23;20017;-87
2023/04/24 08:05:29;;;;;;;5.38;1.70;;;10.80;99.90;;;;;;6184074;23;20017;-86
2023/04/24 08:07:55;;;;;;;4.88;1.98;;;10.80;99.90;;;;;;6184487;23;20017;-87
2023/04/24 08:10:22;;;;;;;7.88;2.42;;;10.80;99.90;;;;;;6184675;23;20051;-87
2023/04/24 08:12:47;;;;;;;7.20;2.97;;;10.80;99.90;;;;;;6185704;23;20017;-87
2023/04/24 08:15:13;;;;;;;7.32;3.40;;;10.80;99.90;;;;;;6183667;23;20036;-87
2023/04/24 08:17:38;;;;;;;12.23;4.85;;;10.70;99.90;;;;;;6185829;23;20415;-88
2023/04/24 08:20:05;;;;;;;11.18;5.47;;;10.70;99.90;;;;;;6183965;23;20021;-88
2023/04/24 08:22:31;;;;;;;9.48;5.18;;;10.70;99.90;;;;;;6184980;23;20059;-87
2023/04/24 08:24:59;;;;;;;11.50;5.18;;;10.70;99.90;;;;;;6183988;23;20013;-88
2023/04/24 08:27:26;;;;;;;9.75;5.13;;;10.70;99.90;;;;;;6184206;23;20017;-88
2023/04/24 08:29:53;;;;;;;10.60;5.53;;;10.70;99.90;;;;;;6182696;23;20013;-87
2023/04/24 08:32:19;;;;;;;14.73;7.35;;;10.70;99.90;;;;;;6183765;23;20091;-89
2023/04/24 08:34:45;;;;;;;13.93;6.80;;;10.70;99.90;;;;;;6185594;23;20009;-91
2023/04/24 08:37:11;;;;;;;11.15;6.18;;;10.70;99.90;;;;;;6184949;23;20068;-90
2023/04/24 08:39:37;;;;;;;12.93;6.32;;;10.70;99.90;;;;;;6184123;23;20079;-89
2023/04/24 08:42:07;;;;;;;13.65;8.10;;;10.60;99.90;;;;;;6186100;23;20009;-92
2023/04/24 08:44:34;;;;;;;13.05;6.30;;;10.60;99.90;;;;;;6204551;23;20023;-89
2023/04/24 08:47:02;;;;;;;11.27;6.25;;;10.60;99.90;;;;;;6189221;23;20453;-91
2023/04/24 08:49:29;;;;;;;11.60;6.93;;;10.60;99.90;;;;;;6215740;23;20070;-90
2023/04/24 08:51:54;;;;;;;17.05;7.35;;;10.60;99.90;;;;;;6215902;23;20016;-92
2023/04/24 08:54:21;;;;;;;15.35;7.28;;;10.60;99.90;;;;;;6190143;23;20498;-92
2023/04/24 08:56:48;;;;;;;13.38;6.95;;;10.60;99.90;;;;;;6216345;23;20520;-92
2023/04/24 08:59:15;;;;;;;14.05;8.13;;;10.50;99.90;;;;;;6189841;23;20023;-91
2023/04/24 09:01:41;;;;;;;16.08;8.40;;;10.50;99.90;;;;;;6188949;23;20025;-91
2023/04/24 09:04:09;;;;;;;13.90;8.25;;;10.50;99.90;;;;;;6215426;23;20034;-92
2023/04/24 09:06:35;;;;;;;18.15;10.07;;;10.40;99.90;;;;;;6189718;23;20016;-93
2023/04/24 09:09:03;;;;;;;16.63;9.90;;;10.40;99.90;;;;;;6216062;23;20066;-90
2023/04/24 09:11:30;;;;;;;13.23;8.35;;;10.40;99.90;;;;;;6187744;23;20437;-89
2023/04/24 09:13:56;;;;;;;15.63;9.60;;;10.40;99.90;;;;;;6215091;23;20012;-89
2023/04/24 09:16:24;;;;;;;15.18;9.73;;;10.40;99.90;;;;;;6215869;23;20044;-90
2023/04/24 09:18:50;;;;;;;14.90;9.57;;;10.30;99.90;;;;;;6187585;23;20475;-90
2023/04/24 09:21:15;;;;;;;16.63;9.35;;;10.40;99.90;;;;;;6189202;23;20445;-90
2023/04/24 09:23:41;;;;;;;17.52;9.68;;;10.30;99.90;;;;;;6188288;23;20035;-90
2023/04/24 09:26:09;;;;;;;12.60;8.23;;;10.40;99.90;;;;;;6214361;23;20306;-90
2023/04/24 09:28:37;;;;;;;13.73;8.73;;;10.40;99.90;;;;;;6187865;23;20013;-90
2023/04/24 09:31:03;;;;;;;12.05;7.55;;;10.40;99.90;;;;;;6214736;23;20017;-90
2023/04/24 09:33:29;;;;;;;15.82;8.18;;;10.40;99.90;;;;;;6214250;23;20468;-89
2023/04/24 09:35:55;;;;;;;12.38;6.88;;;10.40;99.90;;;;;;6188218;23;20017;-88
2023/04/24 09:38:35;;;;;;;14.63;7.05;;;10.40;99.90;;;;;;6188779;23;20016;-90
2023/04/24 09:41:05;;;;;;;14.70;7.13;;;10.40;99.90;;;;;;6187703;23;20075;-90
2023/04/24 09:43:31;;;;;;;12.05;7.03;;;10.30;99.90;;;;;;6215109;23;20020;-90
2023/04/24 09:45:58;;;;;;;12.40;5.78;;;10.40;99.90;;;;;;6215055;23;20024;-90
2023/04/24 09:48:34;;;;;;;12.00;6.72;;;10.40;99.90;;;;;;6214206;23;20066;-90
2023/04/24 09:51:06;;;;;;;12.25;6.63;;;10.30;99.90;;;;;;6188141;23;20017;-92
2023/04/24 09:53:32;;;;;;;13.98;6.35;;;10.30;99.90;;;;;;6186949;23;20688;-87
2023/04/24 09:56:12;;;;;;;16.27;6.20;;;10.30;99.90;;;;;;6188067;23;20012;-87
2023/04/24 09:58:39;;;;;;;14.30;6.05;;;10.30;99.90;;;;;;6187957;23;20012;-87
2023/04/24 10:01:05;;;;;;;11.73;5.50;;;10.30;99.90;;;;;;6186955;23;20016;-87
2023/04/24 10:03:34;;;;;;;15.00;6.22;;;10.30;99.90;;;;;;6188115;23;20079;-87
2023/04/24 10:06:02;;;;;;;13.25;5.78;;;10.30;99.90;;;;;;6214971;23;20024;-87
2023/04/24 10:08:34;;;;;;;12.70;4.95;;;10.30;99.90;;;;;;6213766;23;20063;-87
2023/04/24 10:10:59;;;;;;;11.85;5.65;;;10.30;99.90;;;;;;6188489;23;20016;-88
2023/04/24 10:13:25;;;;;;;17.30;4.95;;;10.30;99.90;;;;;;6188077;23;20035;-88
2023/04/24 10:15:52;;;;;;;12.70;4.78;;;10.30;99.90;;;;;;6186777;23;20009;-88
2023/04/24 10:18:19;;;;;;;9.65;4.72;;;10.40;99.90;;;;;;6188097;23;20412;-89
2023/04/24 10:20:45;;;;;;;11.52;3.85;;;10.40;99.90;;;;;;6215311;23;20504;-91
2023/04/24 10:23:11;;;;;;;11.38;4.22;;;10.40;99.90;;;;;;6188664;23;20012;-90
2023/04/24 10:25:37;;;;;;;9.80;4.05;;;10.40;99.90;;;;;;6215506;23;20042;-90
2023/04/24 10:28:04;;;;;;;13.38;4.20;;;10.40;99.90;;;;;;6188608;23;20497;-88
2023/04/24 10:30:37;;;;;;;10.90;4.18;;;10.40;99.90;;;;;;6214216;23;20071;-89
2023/04/24 10:33:04;;;;;;;9.02;4.20;;;10.40;99.90;;;;;;6188379;23;20024;-89
2023/04/24 10:35:32;;;;;;;11.43;3.88;;;10.40;99.90;;;;;;6213155;23;20012;-87
2023/04/24 10:38:02;;;;;;;9.23;3.88;;;10.50;99.90;;;;;;6188197;23;20515;-88
2023/04/24 10:40:33;;;;;;;12.18;4.20;;;10.40;99.90;;;;;;6188272;23;20017;-90
2023/04/24 10:43:01;;;;;;;11.10;3.90;;;10.40;99.90;;;;;;6187172;23;20025;-87
2023/04/24 10:45:27;;;;;;;12.30;3.70;;;10.40;99.90;;;;;;6214836;23;20024;-89
2023/04/24 10:48:01;;;;;;;10.43;4.25;;;10.40;99.90;;;;;;6189834;23;20397;-89
2023/04/24 10:50:29;;;;;;;9.43;3.00;;;10.40;99.90;;;;;;6216141;23;20070;-89
2023/04/24 10:53:06;;;;;;;11.35;3.05;;;10.40;99.90;;;;;;6190164;23;20075;-89
2023/04/24 10:55:52;;;;;;;11.90;3.28;;;10.40;99.90;;;;;;6217216;23;20016;-92
2023/04/24 10:58:25;;;;;;;14.23;3.10;;;10.40;99.90;;;;;;6189726;23;20550;-91
2023/04/24 11:00:59;;;;;;;10.27;3.40;;;10.40;99.90;;;;;;6216058;23;20020;-91
2023/04/24 11:03:30;;;;;;;10.85;3.20;;;10.40;99.90;;;;;;6190030;23;20437;-91
2023/04/24 11:05:57;;;;;;;10.68;2.38;;;10.40;99.90;;;;;;6187247;23;20028;-91
2023/04/24 11:08:25;;;;;;;9.30;2.67;;;10.40;99.90;;;;;;6189190;23;20023;-87
2023/04/24 11:11:15;;;;;;;9.95;2.50;;;10.40;99.90;;;;;;6187494;23;20955;-90
2023/04/24 11:13:56;;;;;;;13.00;2.63;;;10.40;99.90;;;;;;6190091;23;20434;-92
2023/04/24 11:16:33;;;;;;;12.73;2.78;;;10.40;99.90;;;;;;6190873;23;20047;-91
2023/04/24 11:19:18;;;;;;;10.93;2.47;;;10.40;99.90;;;;;;6189827;23;20024;-92
2023/04/24 11:21:51;;;;;;;11.77;2.55;;;10.40;99.90;;;;;;6216554;23;20386;-90
2023/04/24 11:24:35;;;;;;;9.10;2.42;;;10.40;99.90;;;;;;6190086;23;20048;-91
2023/04/24 11:27:04;;;;;;;9.05;2.00;;;10.40;99.90;;;;;;6216374;23;20021;-90
2023/04/24 11:29:47;;;;;;;8.48;2.10;;;10.40;99.90;;;;;;6217115;23;20019;-92
2023/04/24 11:32:24;;;;;;;9.70;2.40;;;10.40;99.90;;;;;;6189505;23;20054;-90
2023/04/24 11:34:55;;;;;;;12.88;2.50;;;10.40;99.90;;;;;;6216540;23;20028;-89
2023/04/24 11:37:22;;;;;;;10.38;2.00;;;10.40;99.90;;;;;;6217119;23;20052;-93
2023/04/24 11:39:51;;;;;;;8.98;2.10;;;10.40;99.90;;;;;;6217146;23;20035;-89
2023/04/24 11:42:18;;;;;;;11.25;2.13;;;10.40;99.90;;;;;;6215775;23;20453;-87
2023/04/24 11:44:43;;;;;;;10.20;2.35;;;10.40;99.90;;;;;;6189085;23;20449;-89
2023/04/24 11:47:09;;;;;;;8.90;1.95;;;10.40;99.90;;;;;;6188134;23;20047;-89
2023/04/24 11:49:37;;;;;;;12.07;2.63;;;10.50;99.90;;;;;;6216541;23;20437;-88
2023/04/24 11:52:04;;;;;;;11.15;2.30;;;10.40;99.90;;;;;;6215829;23;20024;-87
2023/04/24 11:54:30;;;;;;;10.25;2.00;;;10.40;99.90;;;;;;6188556;23;20067;-88
2023/04/24 11:56:56;;;;;;;7.03;1.95;;;10.40;99.90;;;;;;6188701;23;20012;-89
2023/04/24 11:59:22;;;;;;;6.43;2.10;;;10.40;99.90;;;;;;6187376;23;20084;-88
2023/04/24 12:01:49;;;;;;;8.32;1.73;;;10.40;99.90;;;;;;6188042;23;20048;-88
2023/04/24 12:04:16;;;;;;;6.22;1.77;;;10.30;99.90;;;;;;6189549;23;20043;-88
2023/04/24 12:07:04;;;;;;;8.05;1.92;;;10.30;99.90;;;;;;6189363;23;20020;-89
2023/04/24 12:09:47;;;;;;;7.75;1.88;;;10.30;99.90;;;;;;6216594;23;20087;-89
2023/04/24 12:12:15;;;;;;;9.68;1.83;;;10.30;99.90;;;;;;6189616;23;20048;-89
2023/04/24 12:14:52;;;;;;;7.72;1.70;;;10.20;99.90;;;;;;6215256;23;20019;-90
2023/04/24 12:17:17;;;;;;;9.10;1.60;;;10.30;99.90;;;;;;6189634;23;20183;-87
2023/04/24 12:19:47;;;;;;;6.25;1.73;;;10.30;99.90;;;;;;6189299;23;20018;-87
2023/04/24 12:22:13;;;;;;;6.03;1.95;;;10.30;99.90;;;;;;6215794;23;20016;-87
2023/04/24 12:25:03;;;;;;;8.82;1.70;;;10.30;99.90;;;;;;6215549;23;20414;-88
2023/04/24 12:27:35;;;;;;;7.38;1.70;;;10.30;99.90;;;;;;6180660;23;20021;-87
2023/04/24 12:30:03;;;;;;;7.68;2.13;;;10.30;99.90;;;;;;6188722;23;20012;-87
2023/04/24 12:32:29;;;;;;;6.72;1.42;;;10.30;99.90;;;;;;6216309;23;20095;-87
2023/04/24 12:34:56;;;;;;;6.93;1.40;;;10.40;99.90;;;;;;6215877;23;20051;-90
2023/04/24 12:37:26;;;;;;;4.75;1.00;;;10.40;99.90;;;;;;6216179;23;20012;-90
2023/04/24 12:40:00;;;;;;;6.43;1.52;;;10.40;99.90;;;;;;6189008;23;20353;-89
2023/04/24 12:42:27;;;;;;;8.45;1.35;;;10.40;99.90;;;;;;6215591;23;20039;-90
2023/04/24 12:44:58;;;;;;;10.85;1.65;;;10.40;99.90;;;;;;6215551;23;20059;-87